sensor_id;sensor_type;location;lat;lon;timestamp;P1;durP1;ratioP1;P2;durP2;ratioP2
33022;SDS011;19390;51.460;5.710;2024-03-08T00:02:13;16.90;;;8.55;;
33022;SDS011;19390;51.460;5.710;2024-03-08T00:04:39;17.20;;;7.90;;
33022;SDS011;19390;51.460;5.710;2024-03-08T00:07:05;18.63;;;8.57;;
33022;SDS011;19390;51.460;5.710;2024-03-08T00:09:31;14.40;;;8.27;;
33022;SDS011;19390;51.460;5.710;2024-03-08T00:11:57;15.55;;;8.23;;
33022;SDS011;19390;51.460;5.710;2024-03-08T00:14:23;17.75;;;8.32;;
33022;SDS011;19390;51.460;5.710;2024-03-08T00:16:48;20.05;;;8.98;;
33022;SDS011;19390;51.460;5.710;2024-03-08T00:19:14;15.40;;;8.48;;
33022;SDS011;19390;51.460;5.710;2024-03-08T00:21:40;18.42;;;9.10;;
33022;SDS011;19390;51.460;5.710;2024-03-08T00:24:06;14.05;;;7.80;;
33022;SDS011;19390;51.460;5.710;2024-03-08T00:26:32;14.60;;;7.55;;
33022;SDS011;19390;51.460;5.710;2024-03-08T00:28:58;19.13;;;8.07;;
33022;SDS011;19390;51.460;5.710;2024-03-08T00:31:23;16.50;;;8.25;;
33022;SDS011;19390;51.460;5.710;2024-03-08T00:33:50;16.38;;;9.00;;
33022;SDS011;19390;51.460;5.710;2024-03-08T00:36:16;16.13;;;8.43;;
33022;SDS011;19390;51.460;5.710;2024-03-08T00:38:41;16.60;;;8.02;;
33022;SDS011;19390;51.460;5.710;2024-03-08T00:41:07;16.55;;;7.93;;
33022;SDS011;19390;51.460;5.710;2024-03-08T00:43:33;14.13;;;7.65;;
33022;SDS011;19390;51.460;5.710;2024-03-08T00:45:59;17.17;;;8.82;;
33022;SDS011;19390;51.460;5.710;2024-03-08T00:48:26;16.10;;;8.40;;
33022;SDS011;19390;51.460;5.710;2024-03-08T00:50:51;14.70;;;7.65;;
33022;SDS011;19390;51.460;5.710;2024-03-08T00:53:17;12.65;;;7.93;;
33022;SDS011;19390;51.460;5.710;2024-03-08T00:55:43;17.42;;;7.75;;
33022;SDS011;19390;51.460;5.710;2024-03-08T00:58:11;16.75;;;7.57;;
33022;SDS011;19390;51.460;5.710;2024-03-08T01:00:37;13.88;;;7.00;;
33022;SDS011;19390;51.460;5.710;2024-03-08T01:03:04;12.93;;;7.28;;
33022;SDS011;19390;51.460;5.710;2024-03-08T01:05:30;15.30;;;7.30;;
33022;SDS011;19390;51.460;5.710;2024-03-08T01:07:55;14.52;;;7.22;;
33022;SDS011;19390;51.460;5.710;2024-03-08T01:10:21;14.52;;;7.57;;
33022;SDS011;19390;51.460;5.710;2024-03-08T01:12:48;16.70;;;7.97;;
33022;SDS011;19390;51.460;5.710;2024-03-08T01:15:14;12.38;;;6.90;;
33022;SDS011;19390;51.460;5.710;2024-03-08T01:17:40;13.18;;;6.72;;
33022;SDS011;19390;51.460;5.710;2024-03-08T01:20:06;12.93;;;7.55;;
33022;SDS011;19390;51.460;5.710;2024-03-08T01:22:32;14.57;;;7.55;;
33022;SDS011;19390;51.460;5.710;2024-03-08T01:24:58;12.98;;;7.13;;
33022;SDS011;19390;51.460;5.710;2024-03-08T01:27:24;11.40;;;7.18;;
33022;SDS011;19390;51.460;5.710;2024-03-08T01:29:50;13.52;;;8.07;;
33022;SDS011;19390;51.460;5.710;2024-03-08T01:32:15;15.48;;;8.55;;
33022;SDS011;19390;51.460;5.710;2024-03-08T01:34:41;17.98;;;7.38;;
33022;SDS011;19390;51.460;5.710;2024-03-08T01:37:07;16.15;;;8.25;;
33022;SDS011;19390;51.460;5.710;2024-03-08T01:39:33;12.48;;;7.68;;
33022;SDS011;19390;51.460;5.710;2024-03-08T01:41:59;13.77;;;7.43;;
33022;SDS011;19390;51.460;5.710;2024-03-08T01:44:25;13.52;;;7.55;;
33022;SDS011;19390;51.460;5.710;2024-03-08T01:46:51;15.65;;;7.85;;
33022;SDS011;19390;51.460;5.710;2024-03-08T01:49:18;13.35;;;7.57;;
33022;SDS011;19390;51.460;5.710;2024-03-08T01:51:46;13.95;;;7.47;;
33022;SDS011;19390;51.460;5.710;2024-03-08T01:54:14;13.65;;;7.43;;
33022;SDS011;19390;51.460;5.710;2024-03-08T01:56:41;13.38;;;7.32;;
33022;SDS011;19390;51.460;5.710;2024-03-08T01:59:07;15.57;;;7.10;;
33022;SDS011;19390;51.460;5.710;2024-03-08T02:01:34;13.52;;;7.55;;
33022;SDS011;19390;51.460;5.710;2024-03-08T02:04:00;16.48;;;8.38;;
33022;SDS011;19390;51.460;5.710;2024-03-08T02:06:26;13.85;;;7.45;;
33022;SDS011;19390;51.460;5.710;2024-03-08T02:08:51;13.48;;;7.47;;
33022;SDS011;19390;51.460;5.710;2024-03-08T02:11:18;13.00;;;7.75;;
33022;SDS011;19390;51.460;5.710;2024-03-08T02:13:45;14.15;;;7.78;;
33022;SDS011;19390;51.460;5.710;2024-03-08T02:16:11;14.50;;;8.10;;
33022;SDS011;19390;51.460;5.710;2024-03-08T02:18:36;10.73;;;7.25;;
33022;SDS011;19390;51.460;5.710;2024-03-08T02:21:04;15.60;;;8.52;;
33022;SDS011;19390;51.460;5.710;2024-03-08T02:23:31;14.60;;;8.35;;
33022;SDS011;19390;51.460;5.710;2024-03-08T02:25:58;17.45;;;7.90;;
33022;SDS011;19390;51.460;5.710;2024-03-08T02:28:24;13.38;;;7.55;;
33022;SDS011;19390;51.460;5.710;2024-03-08T02:30:50;15.43;;;8.02;;
33022;SDS011;19390;51.460;5.710;2024-03-08T02:33:16;15.73;;;7.68;;
33022;SDS011;19390;51.460;5.710;2024-03-08T02:35:46;13.52;;;7.75;;
33022;SDS011;19390;51.460;5.710;2024-03-08T02:38:13;14.52;;;7.88;;
33022;SDS011;19390;51.460;5.710;2024-03-08T02:40:42;14.85;;;8.40;;
33022;SDS011;19390;51.460;5.710;2024-03-08T02:43:08;14.38;;;8.18;;
33022;SDS011;19390;51.460;5.710;2024-03-08T02:45:35;14.15;;;8.30;;
33022;SDS011;19390;51.460;5.710;2024-03-08T02:48:01;14.88;;;8.25;;
33022;SDS011;19390;51.460;5.710;2024-03-08T02:50:26;16.58;;;9.15;;
33022;SDS011;19390;51.460;5.710;2024-03-08T02:52:52;13.73;;;8.05;;
33022;SDS011;19390;51.460;5.710;2024-03-08T02:55:18;14.73;;;7.93;;
33022;SDS011;19390;51.460;5.710;2024-03-08T02:57:44;14.80;;;8.48;;
33022;SDS011;19390;51.460;5.710;2024-03-08T03:00:12;12.82;;;7.88;;
33022;SDS011;19390;51.460;5.710;2024-03-08T03:02:38;14.30;;;8.38;;
33022;SDS011;19390;51.460;5.710;2024-03-08T03:05:04;13.15;;;8.75;;
33022;SDS011;19390;51.460;5.710;2024-03-08T03:07:31;18.20;;;8.52;;
33022;SDS011;19390;51.460;5.710;2024-03-08T03:09:58;18.15;;;9.38;;
33022;SDS011;19390;51.460;5.710;2024-03-08T03:12:25;14.98;;;8.20;;
33022;SDS011;19390;51.460;5.710;2024-03-08T03:14:54;13.27;;;8.35;;
33022;SDS011;19390;51.460;5.710;2024-03-08T03:17:21;14.80;;;8.30;;
33022;SDS011;19390;51.460;5.710;2024-03-08T03:19:47;18.08;;;9.02;;
33022;SDS011;19390;51.460;5.710;2024-03-08T03:22:13;15.93;;;8.95;;
33022;SDS011;19390;51.460;5.710;2024-03-08T03:24:40;14.82;;;8.57;;
33022;SDS011;19390;51.460;5.710;2024-03-08T03:27:07;12.95;;;8.13;;
33022;SDS011;19390;51.460;5.710;2024-03-08T03:29:39;16.00;;;8.90;;
33022;SDS011;19390;51.460;5.710;2024-03-08T03:32:07;15.57;;;8.50;;
33022;SDS011;19390;51.460;5.710;2024-03-08T03:34:33;17.40;;;9.35;;
33022;SDS011;19390;51.460;5.710;2024-03-08T03:37:02;18.60;;;9.48;;
33022;SDS011;19390;51.460;5.710;2024-03-08T03:39:29;17.25;;;8.95;;
33022;SDS011;19390;51.460;5.710;2024-03-08T03:41:59;15.35;;;8.88;;
33022;SDS011;19390;51.460;5.710;2024-03-08T03:44:27;15.63;;;8.85;;
33022;SDS011;19390;51.460;5.710;2024-03-08T03:46:53;14.80;;;8.38;;
33022;SDS011;19390;51.460;5.710;2024-03-08T03:49:18;18.23;;;9.45;;
33022;SDS011;19390;51.460;5.710;2024-03-08T03:51:44;15.05;;;8.15;;
33022;SDS011;19390;51.460;5.710;2024-03-08T03:54:10;18.33;;;9.15;;
33022;SDS011;19390;51.460;5.710;2024-03-08T03:56:36;15.70;;;8.90;;
33022;SDS011;19390;51.460;5.710;2024-03-08T03:59:02;17.73;;;8.85;;
33022;SDS011;19390;51.460;5.710;2024-03-08T04:01:27;14.13;;;7.80;;
33022;SDS011;19390;51.460;5.710;2024-03-08T04:03:54;16.67;;;8.48;;
33022;SDS011;19390;51.460;5.710;2024-03-08T04:06:20;20.70;;;9.00;;
33022;SDS011;19390;51.460;5.710;2024-03-08T04:08:47;16.75;;;9.10;;
33022;SDS011;19390;51.460;5.710;2024-03-08T04:11:13;15.32;;;8.13;;
33022;SDS011;19390;51.460;5.710;2024-03-08T04:13:41;17.85;;;9.00;;
33022;SDS011;19390;51.460;5.710;2024-03-08T04:16:06;14.65;;;8.45;;
33022;SDS011;19390;51.460;5.710;2024-03-08T04:18:33;14.95;;;8.32;;
33022;SDS011;19390;51.460;5.710;2024-03-08T04:21:01;18.65;;;9.95;;
33022;SDS011;19390;51.460;5.710;2024-03-08T04:23:27;18.17;;;9.75;;
33022;SDS011;19390;51.460;5.710;2024-03-08T04:25:53;19.10;;;9.25;;
33022;SDS011;19390;51.460;5.710;2024-03-08T04:28:19;14.25;;;8.73;;
33022;SDS011;19390;51.460;5.710;2024-03-08T04:30:45;18.15;;;9.60;;
33022;SDS011;19390;51.460;5.710;2024-03-08T04:33:11;16.20;;;8.05;;
33022;SDS011;19390;51.460;5.710;2024-03-08T04:35:37;19.80;;;9.15;;
33022;SDS011;19390;51.460;5.710;2024-03-08T04:38:02;17.23;;;9.73;;
33022;SDS011;19390;51.460;5.710;2024-03-08T04:40:30;16.00;;;9.35;;
33022;SDS011;19390;51.460;5.710;2024-03-08T04:42:56;17.55;;;10.18;;
33022;SDS011;19390;51.460;5.710;2024-03-08T04:45:24;20.17;;;9.07;;
33022;SDS011;19390;51.460;5.710;2024-03-08T04:47:51;16.20;;;9.23;;
33022;SDS011;19390;51.460;5.710;2024-03-08T04:50:17;18.95;;;9.93;;
33022;SDS011;19390;51.460;5.710;2024-03-08T04:52:43;18.85;;;9.77;;
33022;SDS011;19390;51.460;5.710;2024-03-08T04:55:09;17.90;;;10.05;;
33022;SDS011;19390;51.460;5.710;2024-03-08T04:57:34;15.30;;;8.75;;
33022;SDS011;19390;51.460;5.710;2024-03-08T05:00:02;20.27;;;9.98;;
33022;SDS011;19390;51.460;5.710;2024-03-08T05:02:32;21.45;;;10.77;;
33022;SDS011;19390;51.460;5.710;2024-03-08T05:04:58;17.73;;;9.50;;
33022;SDS011;19390;51.460;5.710;2024-03-08T05:07:23;19.95;;;9.95;;
33022;SDS011;19390;51.460;5.710;2024-03-08T05:09:49;19.20;;;10.38;;
33022;SDS011;19390;51.460;5.710;2024-03-08T05:12:17;19.50;;;10.13;;
33022;SDS011;19390;51.460;5.710;2024-03-08T05:14:44;19.33;;;10.10;;
33022;SDS011;19390;51.460;5.710;2024-03-08T05:17:14;19.17;;;10.05;;
33022;SDS011;19390;51.460;5.710;2024-03-08T05:19:41;16.05;;;9.38;;
33022;SDS011;19390;51.460;5.710;2024-03-08T05:22:07;16.98;;;9.75;;
33022;SDS011;19390;51.460;5.710;2024-03-08T05:24:33;19.55;;;9.80;;
33022;SDS011;19390;51.460;5.710;2024-03-08T05:26:59;21.23;;;10.77;;
33022;SDS011;19390;51.460;5.710;2024-03-08T05:29:25;19.88;;;10.50;;
33022;SDS011;19390;51.460;5.710;2024-03-08T05:31:51;20.77;;;11.20;;
33022;SDS011;19390;51.460;5.710;2024-03-08T05:34:17;16.63;;;9.02;;
33022;SDS011;19390;51.460;5.710;2024-03-08T05:36:44;20.75;;;10.68;;
33022;SDS011;19390;51.460;5.710;2024-03-08T05:39:12;19.33;;;10.35;;
33022;SDS011;19390;51.460;5.710;2024-03-08T05:41:38;18.88;;;10.15;;
33022;SDS011;19390;51.460;5.710;2024-03-08T05:44:05;21.65;;;11.60;;
33022;SDS011;19390;51.460;5.710;2024-03-08T05:46:31;18.63;;;10.27;;
33022;SDS011;19390;51.460;5.710;2024-03-08T05:48:57;23.48;;;10.65;;
33022;SDS011;19390;51.460;5.710;2024-03-08T05:51:24;17.48;;;9.88;;
33022;SDS011;19390;51.460;5.710;2024-03-08T05:53:52;19.90;;;10.63;;
33022;SDS011;19390;51.460;5.710;2024-03-08T05:56:19;18.48;;;10.50;;
33022;SDS011;19390;51.460;5.710;2024-03-08T05:58:45;21.88;;;11.13;;
33022;SDS011;19390;51.460;5.710;2024-03-08T06:01:10;19.55;;;10.85;;
33022;SDS011;19390;51.460;5.710;2024-03-08T06:03:37;22.67;;;10.85;;
33022;SDS011;19390;51.460;5.710;2024-03-08T06:06:13;20.60;;;11.02;;
33022;SDS011;19390;51.460;5.710;2024-03-08T06:08:39;21.92;;;10.77;;
33022;SDS011;19390;51.460;5.710;2024-03-08T06:11:05;20.75;;;10.90;;
33022;SDS011;19390;51.460;5.710;2024-03-08T06:13:31;19.48;;;10.75;;
33022;SDS011;19390;51.460;5.710;2024-03-08T06:15:58;16.83;;;9.70;;
33022;SDS011;19390;51.460;5.710;2024-03-08T06:18:25;21.33;;;11.13;;
33022;SDS011;19390;51.460;5.710;2024-03-08T06:20:51;18.95;;;9.52;;
33022;SDS011;19390;51.460;5.710;2024-03-08T06:23:17;16.25;;;10.15;;
33022;SDS011;19390;51.460;5.710;2024-03-08T06:25:44;18.80;;;10.15;;
33022;SDS011;19390;51.460;5.710;2024-03-08T06:28:09;20.27;;;9.80;;
33022;SDS011;19390;51.460;5.710;2024-03-08T06:30:35;19.35;;;10.20;;
33022;SDS011;19390;51.460;5.710;2024-03-08T06:33:01;19.60;;;10.43;;
33022;SDS011;19390;51.460;5.710;2024-03-08T06:35:27;17.88;;;9.40;;
33022;SDS011;19390;51.460;5.710;2024-03-08T06:37:53;16.95;;;9.02;;
33022;SDS011;19390;51.460;5.710;2024-03-08T06:40:18;20.13;;;9.85;;
33022;SDS011;19390;51.460;5.710;2024-03-08T06:42:44;18.20;;;10.32;;
33022;SDS011;19390;51.460;5.710;2024-03-08T06:45:10;16.63;;;9.65;;
33022;SDS011;19390;51.460;5.710;2024-03-08T06:47:37;19.88;;;9.80;;
33022;SDS011;19390;51.460;5.710;2024-03-08T06:50:03;18.52;;;9.20;;
33022;SDS011;19390;51.460;5.710;2024-03-08T06:52:29;15.80;;;9.43;;
33022;SDS011;19390;51.460;5.710;2024-03-08T06:54:55;17.00;;;8.80;;
33022;SDS011;19390;51.460;5.710;2024-03-08T06:57:22;18.58;;;9.25;;
33022;SDS011;19390;51.460;5.710;2024-03-08T06:59:48;18.92;;;8.75;;
33022;SDS011;19390;51.460;5.710;2024-03-08T07:02:14;15.75;;;8.40;;
33022;SDS011;19390;51.460;5.710;2024-03-08T07:04:40;17.85;;;8.65;;
33022;SDS011;19390;51.460;5.710;2024-03-08T07:07:05;13.60;;;8.10;;
33022;SDS011;19390;51.460;5.710;2024-03-08T07:09:35;16.23;;;8.68;;
33022;SDS011;19390;51.460;5.710;2024-03-08T07:12:01;15.80;;;7.68;;
33022;SDS011;19390;51.460;5.710;2024-03-08T07:14:27;14.32;;;7.90;;
33022;SDS011;19390;51.460;5.710;2024-03-08T07:16:53;19.13;;;7.85;;
33022;SDS011;19390;51.460;5.710;2024-03-08T07:19:18;13.77;;;6.85;;
33022;SDS011;19390;51.460;5.710;2024-03-08T07:21:44;12.90;;;6.93;;
33022;SDS011;19390;51.460;5.710;2024-03-08T07:24:10;12.95;;;7.85;;
33022;SDS011;19390;51.460;5.710;2024-03-08T07:26:45;12.95;;;7.10;;
33022;SDS011;19390;51.460;5.710;2024-03-08T07:29:14;15.17;;;8.10;;
33022;SDS011;19390;51.460;5.710;2024-03-08T07:31:40;11.77;;;6.68;;
33022;SDS011;19390;51.460;5.710;2024-03-08T07:34:06;12.25;;;7.03;;
33022;SDS011;19390;51.460;5.710;2024-03-08T07:36:32;15.57;;;7.93;;
33022;SDS011;19390;51.460;5.710;2024-03-08T07:38:59;13.07;;;7.63;;
33022;SDS011;19390;51.460;5.710;2024-03-08T07:41:25;11.57;;;6.85;;
33022;SDS011;19390;51.460;5.710;2024-03-08T07:43:50;12.20;;;6.57;;
33022;SDS011;19390;51.460;5.710;2024-03-08T07:46:17;12.70;;;7.45;;
33022;SDS011;19390;51.460;5.710;2024-03-08T07:48:43;12.98;;;7.38;;
33022;SDS011;19390;51.460;5.710;2024-03-08T07:51:10;12.55;;;7.03;;
33022;SDS011;19390;51.460;5.710;2024-03-08T07:53:37;11.38;;;6.88;;
33022;SDS011;19390;51.460;5.710;2024-03-08T07:56:03;10.80;;;6.95;;
33022;SDS011;19390;51.460;5.710;2024-03-08T07:58:30;13.70;;;7.30;;
33022;SDS011;19390;51.460;5.710;2024-03-08T08:00:55;13.68;;;7.20;;
33022;SDS011;19390;51.460;5.710;2024-03-08T08:03:21;11.25;;;6.40;;
33022;SDS011;19390;51.460;5.710;2024-03-08T08:05:47;13.10;;;6.95;;
33022;SDS011;19390;51.460;5.710;2024-03-08T08:08:14;15.38;;;8.90;;
33022;SDS011;19390;51.460;5.710;2024-03-08T08:10:40;10.55;;;6.55;;
33022;SDS011;19390;51.460;5.710;2024-03-08T08:13:05;12.52;;;7.30;;
33022;SDS011;19390;51.460;5.710;2024-03-08T08:15:31;9.10;;;5.85;;
33022;SDS011;19390;51.460;5.710;2024-03-08T08:17:59;13.45;;;6.65;;
33022;SDS011;19390;51.460;5.710;2024-03-08T08:20:25;10.70;;;6.70;;
33022;SDS011;19390;51.460;5.710;2024-03-08T08:22:53;14.32;;;7.20;;
33022;SDS011;19390;51.460;5.710;2024-03-08T08:25:20;11.15;;;6.85;;
33022;SDS011;19390;51.460;5.710;2024-03-08T08:27:46;10.57;;;6.85;;
33022;SDS011;19390;51.460;5.710;2024-03-08T08:30:12;11.68;;;7.22;;
33022;SDS011;19390;51.460;5.710;2024-03-08T08:32:38;11.82;;;6.82;;
33022;SDS011;19390;51.460;5.710;2024-03-08T08:35:05;10.30;;;6.05;;
33022;SDS011;19390;51.460;5.710;2024-03-08T08:37:38;9.23;;;5.85;;
33022;SDS011;19390;51.460;5.710;2024-03-08T08:40:04;12.60;;;7.10;;
33022;SDS011;19390;51.460;5.710;2024-03-08T08:42:34;10.90;;;6.45;;
33022;SDS011;19390;51.460;5.710;2024-03-08T08:45:01;9.02;;;6.07;;
33022;SDS011;19390;51.460;5.710;2024-03-08T08:47:26;12.98;;;6.60;;
33022;SDS011;19390;51.460;5.710;2024-03-08T08:49:52;9.20;;;5.88;;
33022;SDS011;19390;51.460;5.710;2024-03-08T08:52:19;14.63;;;7.28;;
33022;SDS011;19390;51.460;5.710;2024-03-08T08:54:44;8.50;;;5.22;;
33022;SDS011;19390;51.460;5.710;2024-03-08T08:57:10;12.40;;;6.38;;
33022;SDS011;19390;51.460;5.710;2024-03-08T08:59:36;11.27;;;5.80;;
33022;SDS011;19390;51.460;5.710;2024-03-08T09:02:04;10.35;;;6.32;;
33022;SDS011;19390;51.460;5.710;2024-03-08T09:04:30;12.15;;;6.78;;
33022;SDS011;19390;51.460;5.710;2024-03-08T09:06:56;9.40;;;6.55;;
33022;SDS011;19390;51.460;5.710;2024-03-08T09:09:22;11.00;;;6.45;;
33022;SDS011;19390;51.460;5.710;2024-03-08T09:11:48;9.88;;;6.40;;
33022;SDS011;19390;51.460;5.710;2024-03-08T09:14:14;9.88;;;6.85;;
33022;SDS011;19390;51.460;5.710;2024-03-08T09:16:40;10.55;;;5.93;;
33022;SDS011;19390;51.460;5.710;2024-03-08T09:19:06;9.60;;;6.22;;
33022;SDS011;19390;51.460;5.710;2024-03-08T09:21:32;10.27;;;6.63;;
33022;SDS011;19390;51.460;5.710;2024-03-08T09:23:59;10.15;;;7.45;;
33022;SDS011;19390;51.460;5.710;2024-03-08T09:26:25;9.68;;;6.95;;
33022;SDS011;19390;51.460;5.710;2024-03-08T09:28:51;8.45;;;5.97;;
33022;SDS011;19390;51.460;5.710;2024-03-08T09:31:17;9.77;;;6.90;;
33022;SDS011;19390;51.460;5.710;2024-03-08T09:33:43;10.68;;;7.03;;
33022;SDS011;19390;51.460;5.710;2024-03-08T09:36:08;10.93;;;6.25;;
33022;SDS011;19390;51.460;5.710;2024-03-08T09:38:34;10.48;;;6.43;;
33022;SDS011;19390;51.460;5.710;2024-03-08T09:41:00;8.95;;;5.95;;
33022;SDS011;19390;51.460;5.710;2024-03-08T09:43:27;10.57;;;6.53;;
33022;SDS011;19390;51.460;5.710;2024-03-08T09:45:53;10.15;;;6.50;;
33022;SDS011;19390;51.460;5.710;2024-03-08T09:48:20;11.13;;;6.50;;
33022;SDS011;19390;51.460;5.710;2024-03-08T09:50:47;6.93;;;4.80;;
33022;SDS011;19390;51.460;5.710;2024-03-08T09:53:14;9.70;;;5.57;;
33022;SDS011;19390;51.460;5.710;2024-03-08T09:55:40;8.18;;;5.60;;
33022;SDS011;19390;51.460;5.710;2024-03-08T09:58:11;7.80;;;5.55;;
33022;SDS011;19390;51.460;5.710;2024-03-08T10:00:52;8.98;;;6.38;;
33022;SDS011;19390;51.460;5.710;2024-03-08T10:03:19;25.33;;;22.67;;
33022;SDS011;19390;51.460;5.710;2024-03-08T10:05:45;19.92;;;11.52;;
33022;SDS011;19390;51.460;5.710;2024-03-08T10:08:11;17.27;;;10.50;;
33022;SDS011;19390;51.460;5.710;2024-03-08T10:10:38;19.50;;;11.48;;
33022;SDS011;19390;51.460;5.710;2024-03-08T10:13:07;16.88;;;10.57;;
33022;SDS011;19390;51.460;5.710;2024-03-08T10:15:34;17.70;;;9.52;;
33022;SDS011;19390;51.460;5.710;2024-03-08T10:18:00;17.13;;;11.48;;
33022;SDS011;19390;51.460;5.710;2024-03-08T10:20:27;17.85;;;10.77;;
33022;SDS011;19390;51.460;5.710;2024-03-08T10:22:58;17.88;;;10.40;;
33022;SDS011;19390;51.460;5.710;2024-03-08T10:25:29;17.35;;;10.38;;
33022;SDS011;19390;51.460;5.710;2024-03-08T10:27:59;17.00;;;10.63;;
33022;SDS011;19390;51.460;5.710;2024-03-08T10:30:24;21.13;;;11.60;;
33022;SDS011;19390;51.460;5.710;2024-03-08T10:32:50;18.42;;;10.93;;
33022;SDS011;19390;51.460;5.710;2024-03-08T10:35:16;16.35;;;11.15;;
33022;SDS011;19390;51.460;5.710;2024-03-08T10:37:49;17.38;;;10.02;;
33022;SDS011;19390;51.460;5.710;2024-03-08T10:40:26;22.92;;;11.85;;
33022;SDS011;19390;51.460;5.710;2024-03-08T10:42:56;15.50;;;10.52;;
33022;SDS011;19390;51.460;5.710;2024-03-08T10:50:40;15.98;;;10.38;;
33022;SDS011;19390;51.460;5.710;2024-03-08T10:53:10;16.88;;;10.07;;
33022;SDS011;19390;51.460;5.710;2024-03-08T10:55:39;14.82;;;9.18;;
33022;SDS011;19390;51.460;5.710;2024-03-08T10:58:08;12.48;;;7.75;;
33022;SDS011;19390;51.460;5.710;2024-03-08T11:00:34;11.82;;;8.25;;
33022;SDS011;19390;51.460;5.710;2024-03-08T11:03:00;15.07;;;9.10;;
33022;SDS011;19390;51.460;5.710;2024-03-08T11:08:02;13.27;;;7.75;;
33022;SDS011;19390;51.460;5.710;2024-03-08T11:10:29;10.77;;;7.28;;
33022;SDS011;19390;51.460;5.710;2024-03-08T11:12:54;11.32;;;7.22;;
33022;SDS011;19390;51.460;5.710;2024-03-08T11:15:20;12.18;;;7.90;;
33022;SDS011;19390;51.460;5.710;2024-03-08T11:20:16;9.65;;;6.38;;
33022;SDS011;19390;51.460;5.710;2024-03-08T11:22:48;10.32;;;6.25;;
33022;SDS011;19390;51.460;5.710;2024-03-08T11:25:37;10.07;;;6.13;;
33022;SDS011;19390;51.460;5.710;2024-03-08T11:28:18;9.85;;;5.75;;
33022;SDS011;19390;51.460;5.710;2024-03-08T11:30:45;9.43;;;6.05;;
33022;SDS011;19390;51.460;5.710;2024-03-08T11:33:27;11.35;;;6.60;;
33022;SDS011;19390;51.460;5.710;2024-03-08T11:38:47;9.98;;;6.45;;
33022;SDS011;19390;51.460;5.710;2024-03-08T11:41:17;12.48;;;6.75;;
33022;SDS011;19390;51.460;5.710;2024-03-08T11:43:44;9.00;;;6.18;;
33022;SDS011;19390;51.460;5.710;2024-03-08T11:46:11;8.43;;;6.30;;
33022;SDS011;19390;51.460;5.710;2024-03-08T11:48:39;10.27;;;6.95;;
33022;SDS011;19390;51.460;5.710;2024-03-08T11:51:09;11.20;;;6.50;;
33022;SDS011;19390;51.460;5.710;2024-03-08T11:53:37;11.50;;;6.75;;
33022;SDS011;19390;51.460;5.710;2024-03-08T11:56:13;8.48;;;6.20;;
33022;SDS011;19390;51.460;5.710;2024-03-08T11:58:39;10.35;;;6.75;;
33022;SDS011;19390;51.460;5.710;2024-03-08T12:01:09;8.15;;;5.95;;
33022;SDS011;19390;51.460;5.710;2024-03-08T12:03:39;9.23;;;6.28;;
33022;SDS011;19390;51.460;5.710;2024-03-08T12:06:07;9.30;;;6.45;;
33022;SDS011;19390;51.460;5.710;2024-03-08T12:08:34;9.43;;;6.45;;
33022;SDS011;19390;51.460;5.710;2024-03-08T12:11:00;11.35;;;6.93;;
33022;SDS011;19390;51.460;5.710;2024-03-08T12:13:27;10.57;;;6.72;;
33022;SDS011;19390;51.460;5.710;2024-03-08T12:15:56;11.00;;;6.40;;
33022;SDS011;19390;51.460;5.710;2024-03-08T12:18:28;9.38;;;6.30;;
33022;SDS011;19390;51.460;5.710;2024-03-08T12:21:06;8.40;;;5.85;;
33022;SDS011;19390;51.460;5.710;2024-03-08T12:26:11;7.95;;;6.10;;
33022;SDS011;19390;51.460;5.710;2024-03-08T12:28:41;8.55;;;5.95;;
33022;SDS011;19390;51.460;5.710;2024-03-08T12:31:09;8.25;;;6.05;;
33022;SDS011;19390;51.460;5.710;2024-03-08T12:33:37;9.05;;;5.97;;
33022;SDS011;19390;51.460;5.710;2024-03-08T12:36:16;8.45;;;5.68;;
33022;SDS011;19390;51.460;5.710;2024-03-08T12:38:46;10.18;;;6.13;;
33022;SDS011;19390;51.460;5.710;2024-03-08T12:41:15;7.90;;;5.85;;
33022;SDS011;19390;51.460;5.710;2024-03-08T12:43:42;8.07;;;5.93;;
33022;SDS011;19390;51.460;5.710;2024-03-08T12:46:13;10.23;;;6.15;;
33022;SDS011;19390;51.460;5.710;2024-03-08T12:48:46;8.50;;;5.93;;
33022;SDS011;19390;51.460;5.710;2024-03-08T12:51:15;10.45;;;5.88;;
33022;SDS011;19390;51.460;5.710;2024-03-08T12:53:43;10.20;;;6.45;;
33022;SDS011;19390;51.460;5.710;2024-03-08T12:56:12;9.43;;;6.40;;
33022;SDS011;19390;51.460;5.710;2024-03-08T12:58:39;8.48;;;6.03;;
33022;SDS011;19390;51.460;5.710;2024-03-08T13:01:05;11.30;;;6.43;;
33022;SDS011;19390;51.460;5.710;2024-03-08T13:03:34;8.43;;;5.68;;
33022;SDS011;19390;51.460;5.710;2024-03-08T13:06:04;8.80;;;6.20;;
33022;SDS011;19390;51.460;5.710;2024-03-08T13:08:33;9.20;;;6.40;;
33022;SDS011;19390;51.460;5.710;2024-03-08T13:13:37;8.55;;;5.82;;
33022;SDS011;19390;51.460;5.710;2024-03-08T13:16:05;8.93;;;5.93;;
33022;SDS011;19390;51.460;5.710;2024-03-08T13:18:34;8.32;;;6.00;;
33022;SDS011;19390;51.460;5.710;2024-03-08T13:21:01;8.13;;;5.90;;
33022;SDS011;19390;51.460;5.710;2024-03-08T13:23:31;9.32;;;6.30;;
33022;SDS011;19390;51.460;5.710;2024-03-08T13:25:57;8.32;;;6.18;;
33022;SDS011;19390;51.460;5.710;2024-03-08T13:28:23;8.00;;;5.43;;
33022;SDS011;19390;51.460;5.710;2024-03-08T13:30:53;7.97;;;5.72;;
33022;SDS011;19390;51.460;5.710;2024-03-08T13:33:18;8.52;;;5.75;;
33022;SDS011;19390;51.460;5.710;2024-03-08T13:35:45;9.55;;;5.72;;
33022;SDS011;19390;51.460;5.710;2024-03-08T13:38:11;9.00;;;6.13;;
33022;SDS011;19390;51.460;5.710;2024-03-08T13:40:38;8.63;;;6.28;;
33022;SDS011;19390;51.460;5.710;2024-03-08T13:43:05;11.00;;;6.50;;
33022;SDS011;19390;51.460;5.710;2024-03-08T13:45:33;8.68;;;6.35;;
33022;SDS011;19390;51.460;5.710;2024-03-08T13:48:02;15.02;;;5.90;;
33022;SDS011;19390;51.460;5.710;2024-03-08T13:50:29;9.38;;;6.32;;
33022;SDS011;19390;51.460;5.710;2024-03-08T13:52:55;10.18;;;6.45;;
33022;SDS011;19390;51.460;5.710;2024-03-08T13:55:21;10.23;;;6.18;;
33022;SDS011;19390;51.460;5.710;2024-03-08T13:57:48;8.32;;;6.00;;
33022;SDS011;19390;51.460;5.710;2024-03-08T14:00:14;8.45;;;6.03;;
33022;SDS011;19390;51.460;5.710;2024-03-08T14:02:40;9.82;;;6.32;;
33022;SDS011;19390;51.460;5.710;2024-03-08T14:05:06;9.20;;;6.10;;
33022;SDS011;19390;51.460;5.710;2024-03-08T14:07:34;10.52;;;5.72;;
33022;SDS011;19390;51.460;5.710;2024-03-08T14:10:02;9.02;;;6.20;;
33022;SDS011;19390;51.460;5.710;2024-03-08T14:12:28;8.68;;;6.10;;
33022;SDS011;19390;51.460;5.710;2024-03-08T14:14:54;8.32;;;5.93;;
33022;SDS011;19390;51.460;5.710;2024-03-08T14:17:24;10.10;;;6.68;;
33022;SDS011;19390;51.460;5.710;2024-03-08T14:19:52;8.13;;;6.10;;
33022;SDS011;19390;51.460;5.710;2024-03-08T14:22:17;9.50;;;6.35;;
33022;SDS011;19390;51.460;5.710;2024-03-08T14:24:43;7.57;;;5.50;;
33022;SDS011;19390;51.460;5.710;2024-03-08T14:27:09;8.95;;;5.78;;
33022;SDS011;19390;51.460;5.710;2024-03-08T14:29:37;9.02;;;5.80;;
33022;SDS011;19390;51.460;5.710;2024-03-08T14:32:04;8.82;;;5.57;;
33022;SDS011;19390;51.460;5.710;2024-03-08T14:34:33;9.05;;;5.70;;
33022;SDS011;19390;51.460;5.710;2024-03-08T14:36:59;10.15;;;5.97;;
33022;SDS011;19390;51.460;5.710;2024-03-08T14:39:25;8.48;;;6.10;;
33022;SDS011;19390;51.460;5.710;2024-03-08T14:41:54;9.48;;;5.53;;
33022;SDS011;19390;51.460;5.710;2024-03-08T14:44:20;9.10;;;6.07;;
33022;SDS011;19390;51.460;5.710;2024-03-08T14:46:54;10.45;;;6.35;;
33022;SDS011;19390;51.460;5.710;2024-03-08T14:49:23;7.78;;;5.28;;
33022;SDS011;19390;51.460;5.710;2024-03-08T14:51:51;7.82;;;5.63;;
33022;SDS011;19390;51.460;5.710;2024-03-08T14:54:16;7.88;;;5.65;;